Time;durP1;ratioP1;P1;durP2;ratioP2;P2;SDS_P1;SDS_P2;PMS_P1;PMS_P2;Temp;Humidity;BMP_temperature;BMP_pressure;BME280_temperature;BME280_humidity;BME280_pressure;Samples;Min_cycle;Max_cycle;Signal;HPM_P1;HPM_P2
2022/07/06 00:01:50;;;;;;;7.03;2.58;;;12.80;99.90;;;;;;5025076;28;20131;-78
2022/07/06 00:04:17;;;;;;;5.28;2.20;;;12.80;99.90;;;;;;5018155;28;20048;-78
2022/07/06 00:06:43;;;;;;;4.65;2.35;;;12.80;99.90;;;;;;5007571;28;20754;-78
2022/07/06 00:09:09;;;;;;;3.03;2.10;;;12.80;99.90;;;;;;5002432;28;20038;-78
2022/07/06 00:11:35;;;;;;;4.55;2.60;;;12.80;99.90;;;;;;5016513;28;20053;-78
2022/07/06 00:14:01;;;;;;;6.95;2.17;;;12.80;99.90;;;;;;5013143;28;20435;-78
2022/07/06 00:16:26;;;;;;;6.88;2.28;;;12.80;99.90;;;;;;5013769;28;20061;-78
2022/07/06 00:18:52;;;;;;;5.20;2.00;;;12.80;99.90;;;;;;5011419;28;20037;-78
2022/07/06 00:21:18;;;;;;;5.55;2.17;;;12.90;99.90;;;;;;5008018;28;20502;-78
2022/07/06 00:23:44;;;;;;;6.82;2.08;;;12.90;99.90;;;;;;5012422;28;20041;-77
2022/07/06 00:26:10;;;;;;;8.82;2.10;;;12.90;99.90;;;;;;5019840;28;20449;-77
2022/07/06 00:28:35;;;;;;;2.92;2.15;;;12.90;99.90;;;;;;5012165;28;20037;-78
2022/07/06 00:31:01;;;;;;;5.25;2.63;;;12.90;99.90;;;;;;5012935;28;20073;-78
2022/07/06 00:33:27;;;;;;;5.22;2.40;;;12.90;99.90;;;;;;5012488;28;20483;-78
2022/07/06 00:35:53;;;;;;;4.28;2.00;;;13.00;99.90;;;;;;5021511;28;20034;-78
2022/07/06 00:38:18;;;;;;;7.72;2.45;;;13.00;99.90;;;;;;5025748;28;20038;-78
2022/07/06 00:40:44;;;;;;;5.60;2.10;;;13.00;99.90;;;;;;5051378;28;20136;-78
2022/07/06 00:43:10;;;;;;;6.60;2.35;;;13.00;99.90;;;;;;5036760;28;20046;-78
2022/07/06 00:45:36;;;;;;;8.70;2.67;;;13.00;99.90;;;;;;5027402;28;20057;-78
2022/07/06 00:48:02;;;;;;;3.85;1.90;;;13.10;99.90;;;;;;5036021;28;20042;-78
2022/07/06 00:50:28;;;;;;;4.97;2.13;;;13.10;99.90;;;;;;5024825;28;20044;-78
2022/07/06 00:53:02;;;;;;;6.63;2.30;;;13.10;99.90;;;;;;5016838;28;20049;-78
2022/07/06 00:55:31;;;;;;;4.97;2.20;;;13.10;99.90;;;;;;5027872;28;20084;-78
2022/07/06 00:57:58;;;;;;;5.13;2.58;;;13.20;99.90;;;;;;5016327;28;20045;-78
2022/07/06 01:00:26;;;;;;;4.65;2.25;;;13.10;99.90;;;;;;5017305;28;20037;-77
2022/07/06 01:02:53;;;;;;;4.20;2.28;;;13.10;99.90;;;;;;5018661;28;20085;-78
2022/07/06 01:05:19;;;;;;;7.60;2.30;;;13.10;99.90;;;;;;5034494;28;20046;-78
2022/07/06 01:07:48;;;;;;;6.28;2.60;;;13.10;99.90;;;;;;5013447;28;20037;-78
2022/07/06 01:10:16;;;;;;;3.67;2.35;;;13.10;99.90;;;;;;5028156;28;20042;-77
2022/07/06 01:12:43;;;;;;;7.40;2.72;;;13.10;99.90;;;;;;5028807;28;20116;-77
2022/07/06 01:15:12;;;;;;;6.50;2.50;;;13.00;99.90;;;;;;5012166;28;20503;-78
2022/07/06 01:17:39;;;;;;;7.57;2.40;;;13.00;99.90;;;;;;5016427;28;20063;-78
2022/07/06 01:20:16;;;;;;;5.45;2.50;;;13.00;99.90;;;;;;4997125;28;20572;-77
2022/07/06 01:22:43;;;;;;;3.38;2.03;;;13.00;99.90;;;;;;5043103;28;20037;-78
2022/07/06 01:25:09;;;;;;;3.85;2.45;;;13.00;99.90;;;;;;5002022;28;20502;-78
2022/07/06 01:27:38;;;;;;;5.78;2.70;;;13.00;99.90;;;;;;5008859;28;20029;-78
2022/07/06 01:30:09;;;;;;;6.28;2.90;;;13.00;99.90;;;;;;5011058;28;20033;-78
2022/07/06 01:32:36;;;;;;;10.00;2.72;;;12.90;99.90;;;;;;5006102;28;20033;-78
2022/07/06 01:35:04;;;;;;;7.05;2.33;;;13.00;99.90;;;;;;5014825;28;20069;-78
2022/07/06 01:37:30;;;;;;;5.60;2.13;;;13.00;99.90;;;;;;5013302;28;20052;-78
2022/07/06 01:40:03;;;;;;;6.68;2.20;;;13.00;99.90;;;;;;5033721;28;20046;-78
2022/07/06 01:42:29;;;;;;;3.90;2.17;;;13.00;99.90;;;;;;4999664;28;20076;-78
2022/07/06 01:44:55;;;;;;;4.68;2.67;;;13.00;99.90;;;;;;5039219;28;20513;-78
2022/07/06 01:47:21;;;;;;;5.68;2.42;;;13.00;99.90;;;;;;5024847;28;20030;-78
2022/07/06 01:49:47;;;;;;;4.55;2.05;;;13.00;99.90;;;;;;5004782;28;20426;-78
2022/07/06 01:52:13;;;;;;;3.08;2.15;;;13.00;99.90;;;;;;5043063;28;20611;-78
2022/07/06 01:54:39;;;;;;;3.42;2.40;;;13.00;99.90;;;;;;5022569;28;20034;-78
2022/07/06 01:57:05;;;;;;;5.80;2.20;;;13.00;99.90;;;;;;5013650;28;20048;-78
2022/07/06 01:59:31;;;;;;;6.30;2.35;;;12.90;99.90;;;;;;5013550;28;20121;-78
2022/07/06 02:01:56;;;;;;;5.53;2.10;;;13.00;99.90;;;;;;5007437;28;20120;-78
2022/07/06 02:04:22;;;;;;;4.60;2.40;;;13.00;99.90;;;;;;5010884;28;20132;-77
2022/07/06 02:06:48;;;;;;;3.42;2.00;;;12.90;99.90;;;;;;5016417;28;20081;-77
2022/07/06 02:09:14;;;;;;;4.68;2.30;;;12.90;99.90;;;;;;5017867;28;20049;-78
2022/07/06 02:11:40;;;;;;;3.72;2.30;;;12.90;99.90;;;;;;5009429;28;20081;-78
2022/07/06 02:14:06;;;;;;;6.85;2.58;;;12.90;99.90;;;;;;5016350;28;20037;-78
2022/07/06 02:16:31;;;;;;;4.43;2.15;;;12.90;99.90;;;;;;5020502;28;20069;-78
2022/07/06 02:18:57;;;;;;;8.20;2.80;;;12.90;99.90;;;;;;5019467;28;20038;-78
2022/07/06 02:21:23;;;;;;;5.25;2.58;;;12.90;99.90;;;;;;5039365;28;20148;-77
2022/07/06 02:23:48;;;;;;;5.22;2.90;;;12.90;99.90;;;;;;4979296;28;20050;-78
2022/07/06 02:26:14;;;;;;;7.93;2.65;;;12.90;99.90;;;;;;5026029;28;20048;-77
2022/07/06 02:28:40;;;;;;;5.15;2.53;;;12.90;99.90;;;;;;5037058;28;20033;-78
2022/07/06 02:31:06;;;;;;;4.90;2.58;;;12.90;99.90;;;;;;5023751;28;20049;-78
2022/07/06 02:33:32;;;;;;;5.03;3.08;;;12.80;99.90;;;;;;5011910;28;20038;-78
2022/07/06 02:35:57;;;;;;;6.35;2.92;;;12.80;99.90;;;;;;5013615;28;20041;-78
2022/07/06 02:38:23;;;;;;;3.70;2.53;;;12.80;99.90;;;;;;5010620;28;20040;-78
2022/07/06 02:40:49;;;;;;;5.78;2.67;;;12.80;99.90;;;;;;5019850;28;20655;-78
2022/07/06 02:43:14;;;;;;;7.55;3.17;;;12.80;99.90;;;;;;5013627;28;20049;-78
2022/07/06 02:45:40;;;;;;;7.72;2.85;;;12.80;99.90;;;;;;5016208;28;20141;-77
2022/07/06 02:48:06;;;;;;;6.13;2.63;;;12.80;99.90;;;;;;5015591;28;20041;-77
2022/07/06 02:50:32;;;;;;;3.22;2.60;;;12.80;99.90;;;;;;4996859;28;20043;-77
2022/07/06 02:52:58;;;;;;;5.88;2.50;;;12.80;99.90;;;;;;4996954;28;20772;-77
2022/07/06 02:55:24;;;;;;;5.10;2.50;;;12.80;99.90;;;;;;5005849;28;20519;-77
2022/07/06 02:57:51;;;;;;;5.80;2.80;;;12.80;99.90;;;;;;5013259;28;20039;-77
2022/07/06 03:00:17;;;;;;;5.20;2.65;;;12.80;99.90;;;;;;5005865;28;20042;-77
2022/07/06 03:02:43;;;;;;;5.15;2.55;;;12.80;99.90;;;;;;5025768;28;20042;-77
2022/07/06 03:05:08;;;;;;;3.83;2.35;;;12.80;99.90;;;;;;4978254;28;20056;-78
2022/07/06 03:07:34;;;;;;;5.63;2.90;;;12.80;99.90;;;;;;5020236;28;20038;-78
2022/07/06 03:10:00;;;;;;;7.00;2.70;;;12.80;99.90;;;;;;5024500;28;20136;-78
2022/07/06 03:12:26;;;;;;;6.22;3.00;;;12.80;99.90;;;;;;5013442;28;20034;-78
2022/07/06 03:14:51;;;;;;;5.07;2.58;;;12.20;99.90;;;;;;5008186;28;20052;-78
2022/07/06 03:17:17;;;;;;;2.70;2.20;;;12.80;99.90;;;;;;5009396;28;20041;-77
2022/07/06 03:19:43;;;;;;;5.82;2.63;;;12.80;99.90;;;;;;4992791;28;20367;-77
2022/07/06 03:22:09;;;;;;;4.20;2.30;;;12.80;99.90;;;;;;5005290;28;20056;-77
2022/07/06 03:24:35;;;;;;;4.45;2.67;;;12.80;99.90;;;;;;5018170;28;20037;-77
2022/07/06 03:27:00;;;;;;;8.63;2.42;;;12.80;99.90;;;;;;5039654;28;20565;-77
2022/07/06 03:29:26;;;;;;;4.78;2.15;;;12.90;99.90;;;;;;5027474;28;20049;-77
2022/07/06 03:31:52;;;;;;;7.50;2.67;;;12.80;99.90;;;;;;5028832;28;20201;-78
2022/07/06 03:34:17;;;;;;;4.30;2.40;;;12.90;99.90;;;;;;5027721;28;20091;-78
2022/07/06 03:36:43;;;;;;;4.85;2.70;;;12.90;99.90;;;;;;4997477;28;20034;-78
2022/07/06 03:39:09;;;;;;;4.32;2.22;;;12.80;99.90;;;;;;5021817;28;20045;-77
2022/07/06 03:41:34;;;;;;;5.07;2.40;;;12.90;99.90;;;;;;5007039;28;20164;-78
2022/07/06 03:44:00;;;;;;;4.88;2.10;;;12.80;99.90;;;;;;4989192;28;20057;-77
2022/07/06 03:46:27;;;;;;;7.28;2.50;;;12.90;99.90;;;;;;5039654;28;20111;-77
2022/07/06 03:48:52;;;;;;;8.90;3.25;;;12.90;99.90;;;;;;5023870;28;20095;-77
2022/07/06 03:51:18;;;;;;;5.00;2.35;;;12.90;99.90;;;;;;5011107;28;20045;-77
2022/07/06 03:53:44;;;;;;;3.90;2.20;;;12.90;99.90;;;;;;4998512;28;20463;-77
2022/07/06 03:56:28;;;;;;;6.47;2.40;;;12.90;99.90;;;;;;4999848;28;20069;-77
2022/07/06 03:58:59;;;;;;;4.65;2.03;;;12.90;99.90;;;;;;5028743;28;20503;-77
2022/07/06 04:01:25;;;;;;;3.95;2.22;;;12.90;99.90;;;;;;5027782;28;20040;-77
2022/07/06 04:03:51;;;;;;;6.25;2.58;;;12.90;99.90;;;;;;4986876;28;20048;-77
2022/07/06 04:06:16;;;;;;;4.35;2.60;;;13.00;99.90;;;;;;4997833;28;20042;-77
2022/07/06 04:08:42;;;;;;;7.50;2.42;;;13.00;99.90;;;;;;5026326;28;20050;-77
2022/07/06 04:11:08;;;;;;;4.00;2.25;;;13.00;99.90;;;;;;5025192;28;20076;-77
2022/07/06 04:13:38;;;;;;;2.30;1.88;;;13.00;99.90;;;;;;4991096;28;20041;-77
2022/07/06 04:16:05;;;;;;;5.22;2.40;;;13.00;99.90;;;;;;5026746;28;20129;-77
2022/07/06 04:18:31;;;;;;;6.28;2.20;;;13.10;99.90;;;;;;5014959;28;20038;-77
2022/07/06 04:20:59;;;;;;;6.95;2.13;;;13.10;99.90;;;;;;5012385;28;20049;-77
2022/07/06 04:23:25;;;;;;;9.90;2.67;;;13.10;99.90;;;;;;5031833;28;20040;-77
2022/07/06 04:25:50;;;;;;;17.23;4.93;;;13.10;99.90;;;;;;5009393;28;20398;-77
2022/07/06 04:28:16;;;;;;;6.75;2.45;;;13.10;99.90;;;;;;4997131;28;20053;-77
2022/07/06 04:30:42;;;;;;;6.75;3.33;;;13.20;99.90;;;;;;5003586;28;20042;-77
2022/07/06 04:33:08;;;;;;;5.22;2.33;;;13.20;99.90;;;;;;5039283;28;20033;-77
2022/07/06 04:35:34;;;;;;;4.88;2.22;;;13.20;99.90;;;;;;4999243;28;20041;-77
2022/07/06 04:37:59;;;;;;;5.43;2.00;;;13.30;99.90;;;;;;5026817;28;20037;-76
2022/07/06 04:40:25;;;;;;;5.32;2.20;;;13.30;99.90;;;;;;5012890;28;20050;-77
2022/07/06 04:42:51;;;;;;;4.57;2.13;;;13.30;99.90;;;;;;5012678;28;20056;-77
2022/07/06 04:45:17;;;;;;;7.03;2.17;;;13.30;99.90;;;;;;4995150;28;20049;-77
2022/07/06 04:47:44;;;;;;;6.22;2.90;;;13.40;99.90;;;;;;5004174;28;20037;-77
2022/07/06 04:50:10;;;;;;;3.63;1.85;;;13.40;99.90;;;;;;5014785;28;20041;-77
2022/07/06 04:52:36;;;;;;;7.03;2.15;;;13.40;99.90;;;;;;5029584;28;20029;-77
2022/07/06 04:55:04;;;;;;;4.28;2.10;;;13.40;99.90;;;;;;5029420;28;20041;-77
2022/07/06 04:57:30;;;;;;;7.20;2.22;;;13.40;99.90;;;;;;5015503;28;20037;-77
2022/07/06 04:59:56;;;;;;;5.65;2.20;;;13.40;99.90;;;;;;5006243;28;20092;-77
2022/07/06 05:02:22;;;;;;;5.10;1.83;;;13.40;99.90;;;;;;5026238;28;20602;-77
2022/07/06 05:04:48;;;;;;;5.80;2.17;;;13.40;99.90;;;;;;5034534;28;20128;-77
2022/07/06 05:07:14;;;;;;;9.82;2.40;;;13.40;99.90;;;;;;4997739;28;20034;-77
2022/07/06 05:09:40;;;;;;;6.63;2.50;;;13.50;99.90;;;;;;5022112;28;20116;-77
2022/07/06 05:12:06;;;;;;;5.22;2.53;;;13.50;99.90;;;;;;5008973;28;20197;-77
2022/07/06 05:14:32;;;;;;;10.88;2.92;;;13.50;99.90;;;;;;5006514;28;20116;-77
2022/07/06 05:16:57;;;;;;;4.32;1.80;;;13.60;99.90;;;;;;5013037;28;20568;-77
2022/07/06 05:19:23;;;;;;;5.28;2.17;;;13.60;99.90;;;;;;5017666;28;20033;-77
2022/07/06 05:21:49;;;;;;;4.97;1.95;;;13.60;99.90;;;;;;5017057;28;20047;-77
2022/07/06 05:24:15;;;;;;;4.20;2.05;;;13.60;99.90;;;;;;5031019;28;20116;-77
2022/07/06 05:26:41;;;;;;;7.90;1.90;;;13.70;99.90;;;;;;5031034;28;20072;-77
2022/07/06 05:29:07;;;;;;;2.67;1.70;;;13.70;99.90;;;;;;5011312;28;20046;-77
2022/07/06 05:31:33;;;;;;;5.03;1.80;;;13.70;99.90;;;;;;5033062;28;20671;-77
2022/07/06 05:33:59;;;;;;;7.30;2.80;;;13.80;99.90;;;;;;5019522;28;20033;-77
2022/07/06 05:36:24;;;;;;;7.65;1.67;;;13.80;99.90;;;;;;4995639;28;20503;-77
2022/07/06 05:38:50;;;;;;;6.88;1.70;;;13.80;99.90;;;;;;5001283;28;20038;-77
2022/07/06 05:41:16;;;;;;;6.93;1.90;;;13.80;99.90;;;;;;5025477;28;20064;-77
2022/07/06 05:43:41;;;;;;;6.25;1.67;;;13.90;99.90;;;;;;5010603;28;20049;-77
2022/07/06 05:46:07;;;;;;;4.22;1.50;;;13.90;99.90;;;;;;5040049;28;20132;-77
2022/07/06 05:51:17;;;;;;;2.10;1.42;;;14.00;99.90;;;;;;5009502;28;20050;-77
2022/07/06 05:53:43;;;;;;;5.32;1.45;;;14.10;99.90;;;;;;5022052;28;20038;-77
2022/07/06 05:56:09;;;;;;;3.45;1.27;;;14.20;99.90;;;;;;5015021;28;20273;-77
2022/07/06 05:58:34;;;;;;;5.80;1.42;;;14.30;99.90;;;;;;5002054;28;20553;-77
2022/07/06 06:01:00;;;;;;;5.50;1.70;;;14.30;99.90;;;;;;5040973;28;20084;-77
2022/07/06 06:03:26;;;;;;;3.72;1.33;;;14.40;99.90;;;;;;4994750;28;20041;-77
2022/07/06 06:05:52;;;;;;;3.70;1.65;;;14.40;99.90;;;;;;5020189;28;20410;-77
2022/07/06 06:08:17;;;;;;;7.13;1.60;;;14.50;99.90;;;;;;5012304;28;20100;-77
2022/07/06 06:10:43;;;;;;;2.95;1.50;;;14.60;99.90;;;;;;5007955;28;20048;-77
2022/07/06 06:13:09;;;;;;;3.63;1.15;;;14.60;99.90;;;;;;5010951;28;20060;-77
2022/07/06 06:15:35;;;;;;;4.78;1.38;;;14.60;99.90;;;;;;5029939;28;20040;-77
2022/07/06 06:18:01;;;;;;;4.07;1.10;;;14.60;99.90;;;;;;5032149;28;20503;-77
2022/07/06 06:20:27;;;;;;;2.50;1.50;;;14.70;99.90;;;;;;4997593;28;20475;-77
2022/07/06 06:22:55;;;;;;;3.30;1.50;;;14.80;99.90;;;;;;5012841;28;20052;-77
2022/07/06 06:25:31;;;;;;;5.40;1.08;;;14.80;99.90;;;;;;5019452;28;20389;-77
2022/07/06 06:27:57;;;;;;;7.85;1.48;;;14.90;99.90;;;;;;5020756;28;20402;-77
2022/07/06 06:30:23;;;;;;;5.68;1.50;;;14.90;99.90;;;;;;5006149;28;20042;-77
2022/07/06 06:32:49;;;;;;;4.70;1.98;;;14.90;99.90;;;;;;5027206;28;20410;-77
2022/07/06 06:35:15;;;;;;;4.97;1.40;;;15.00;99.90;;;;;;5016358;28;20043;-77
2022/07/06 06:37:41;;;;;;;4.72;1.52;;;15.00;99.90;;;;;;5005400;28;20037;-77
2022/07/06 06:40:08;;;;;;;3.15;1.38;;;15.00;99.90;;;;;;5023316;28;20064;-77
2022/07/06 06:42:37;;;;;;;3.08;1.50;;;15.00;99.90;;;;;;5018879;28;20277;-77
2022/07/06 06:45:05;;;;;;;2.70;1.15;;;15.00;99.90;;;;;;5012277;28;20072;-77
2022/07/06 06:47:30;;;;;;;5.30;1.45;;;15.10;99.90;;;;;;5007371;28;20105;-77
2022/07/06 06:49:56;;;;;;;5.28;1.42;;;15.10;99.90;;;;;;5003843;28;20041;-77
2022/07/06 06:52:22;;;;;;;3.75;1.10;;;15.10;99.90;;;;;;5023877;28;20052;-77
2022/07/06 06:54:47;;;;;;;3.05;1.23;;;15.10;99.90;;;;;;5029369;28;20045;-76
2022/07/06 06:57:13;;;;;;;5.68;1.10;;;15.10;99.90;;;;;;5010583;28;20013;-77
2022/07/06 06:59:39;;;;;;;5.28;1.20;;;15.20;99.90;;;;;;5035106;28;20115;-76
2022/07/06 07:02:04;;;;;;;3.85;1.35;;;15.20;99.90;;;;;;5019190;28;20037;-77
2022/07/06 07:04:30;;;;;;;8.05;1.38;;;15.20;99.90;;;;;;5034049;28;20101;-77
2022/07/06 07:06:56;;;;;;;6.07;1.75;;;15.20;99.90;;;;;;5000120;28;20072;-77
2022/07/06 07:09:22;;;;;;;1.63;1.00;;;15.20;99.90;;;;;;5022744;28;20038;-77
2022/07/06 07:11:48;;;;;;;5.30;1.58;;;15.10;99.90;;;;;;5049057;28;20068;-76
2022/07/06 07:14:14;;;;;;;2.25;1.10;;;15.10;99.90;;;;;;5021075;28;20033;-77
2022/07/06 07:16:39;;;;;;;2.08;1.10;;;15.20;99.90;;;;;;5016499;28;20041;-77
2022/07/06 07:19:05;;;;;;;4.25;1.25;;;15.20;99.90;;;;;;5025185;28;20429;-77
2022/07/06 07:21:31;;;;;;;4.40;0.90;;;15.20;99.90;;;;;;5005269;28;20135;-76
2022/07/06 07:23:57;;;;;;;3.80;1.10;;;15.30;99.90;;;;;;5042857;28;20076;-76
2022/07/06 07:26:22;;;;;;;6.15;1.35;;;15.40;99.90;;;;;;5021977;28;20600;-77
2022/07/06 07:28:48;;;;;;;4.05;1.20;;;15.40;99.90;;;;;;5015211;28;20041;-76
2022/07/06 07:31:14;;;;;;;1.92;1.05;;;15.50;99.90;;;;;;5010859;28;20458;-76
2022/07/06 07:33:39;;;;;;;5.13;1.00;;;15.60;99.90;;;;;;5013380;28;20037;-77
2022/07/06 07:36:05;;;;;;;3.35;1.05;;;15.70;99.90;;;;;;5024716;28;20059;-77
2022/07/06 07:38:31;;;;;;;3.35;1.05;;;15.80;99.90;;;;;;4995676;28;20520;-77
2022/07/06 07:40:57;;;;;;;3.55;1.17;;;15.80;99.90;;;;;;5020141;28;20522;-77
2022/07/06 07:43:23;;;;;;;7.20;1.20;;;15.90;99.90;;;;;;5026723;28;20052;-77
2022/07/06 07:45:49;;;;;;;2.33;1.13;;;16.00;99.90;;;;;;5021529;28;20124;-76
2022/07/06 07:48:15;;;;;;;7.43;2.15;;;15.90;99.90;;;;;;5010243;28;20052;-77
2022/07/06 07:50:41;;;;;;;4.63;1.05;;;16.00;99.90;;;;;;5012662;28;20037;-77
2022/07/06 07:53:07;;;;;;;5.45;1.40;;;16.00;99.90;;;;;;5028764;28;20502;-76
2022/07/06 07:55:33;;;;;;;2.70;1.10;;;16.00;99.90;;;;;;5016304;28;20044;-77
2022/07/06 07:57:59;;;;;;;5.35;1.55;;;16.00;99.90;;;;;;4993792;28;20045;-77
2022/07/06 08:00:25;;;;;;;2.65;1.00;;;16.00;99.90;;;;;;5022225;28;20462;-77
2022/07/06 08:02:51;;;;;;;6.78;1.35;;;16.00;99.90;;;;;;5036755;28;20049;-77
2022/07/06 08:05:16;;;;;;;5.57;1.40;;;16.00;99.90;;;;;;5027961;28;20046;-77
2022/07/06 08:07:42;;;;;;;3.75;1.00;;;16.00;99.90;;;;;;5007013;28;20049;-77
2022/07/06 08:10:09;;;;;;;3.42;1.27;;;16.00;99.90;;;;;;5015617;28;20060;-76
2022/07/06 08:12:35;;;;;;;4.65;1.17;;;16.10;99.90;;;;;;5041336;28;20503;-76
2022/07/06 08:15:02;;;;;;;8.00;1.70;;;16.10;99.90;;;;;;5011327;28;20164;-77
2022/07/06 08:17:28;;;;;;;6.70;1.45;;;16.20;99.90;;;;;;4996164;28;20034;-77
2022/07/06 08:19:53;;;;;;;6.75;1.10;;;16.30;99.90;;;;;;5013007;28;20037;-77
2022/07/06 08:22:19;;;;;;;5.03;1.10;;;16.40;99.90;;;;;;5029292;28;20402;-77
2022/07/06 08:24:45;;;;;;;7.28;1.40;;;16.50;99.90;;;;;;5010298;28;20045;-77
2022/07/06 08:27:10;;;;;;;3.97;1.65;;;16.60;99.90;;;;;;4996463;28;20034;-77
2022/07/06 08:29:36;;;;;;;4.75;1.30;;;16.70;99.90;;;;;;5029374;28;20075;-78
2022/07/06 08:32:02;;;;;;;7.57;1.75;;;16.80;99.90;;;;;;5029384;28;20454;-78
2022/07/06 08:34:28;;;;;;;3.90;1.50;;;17.00;99.90;;;;;;5029046;28;20099;-77
2022/07/06 08:36:54;;;;;;;3.92;1.30;;;17.20;99.90;;;;;;4985080;28;20041;-78
2022/07/06 08:39:19;;;;;;;5.05;1.08;;;17.30;99.90;;;;;;5012717;28;20037;-77
2022/07/06 08:41:47;;;;;;;3.85;1.05;;;17.40;99.90;;;;;;5028817;28;20305;-77
2022/07/06 08:44:14;;;;;;;2.38;1.10;;;17.60;99.90;;;;;;5029244;28;20052;-77
2022/07/06 08:46:41;;;;;;;2.45;0.98;;;17.60;99.90;;;;;;4996599;28;20042;-78
2022/07/06 08:49:08;;;;;;;1.80;0.68;;;17.60;99.90;;;;;;5017163;28;20045;-78
2022/07/06 08:51:36;;;;;;;4.30;1.23;;;17.50;99.90;;;;;;5010864;28;20046;-77
2022/07/06 08:54:05;;;;;;;4.15;1.30;;;17.40;99.90;;;;;;4993339;28;20045;-78
2022/07/06 08:56:31;;;;;;;7.57;1.33;;;17.20;99.90;;;;;;5023429;28;20038;-77
2022/07/06 08:58:57;;;;;;;4.25;1.30;;;17.10;99.90;;;;;;5008460;28;20038;-77
2022/07/06 09:01:23;;;;;;;5.10;1.10;;;16.90;99.90;;;;;;5034102;28;20094;-77
2022/07/06 09:03:50;;;;;;;2.65;0.90;;;16.90;99.90;;;;;;5025962;28;20048;-77
2022/07/06 09:06:27;;;;;;;3.47;1.45;;;16.80;99.90;;;;;;5014676;28;20074;-76
2022/07/06 09:08:56;;;;;;;22.42;4.50;;;16.70;99.90;;;;;;5010835;28;20096;-77
2022/07/06 09:11:23;;;;;;;3.40;1.20;;;16.70;99.90;;;;;;5011454;28;20053;-77
2022/07/06 09:13:51;;;;;;;3.80;1.00;;;16.70;99.90;;;;;;4997801;28;20112;-77
2022/07/06 09:16:17;;;;;;;2.45;1.00;;;16.70;99.90;;;;;;5011957;28;20046;-78
2022/07/06 09:18:46;;;;;;;2.60;1.20;;;16.70;99.90;;;;;;5029282;28;20036;-77
2022/07/06 09:21:25;;;;;;;3.78;1.60;;;16.70;99.90;;;;;;5042042;28;20075;-77
2022/07/06 09:24:00;;;;;;;5.85;1.42;;;16.70;99.90;;;;;;5016161;28;20037;-77
2022/07/06 09:26:26;;;;;;;4.65;1.13;;;16.80;99.90;;;;;;5018607;28;20372;-77
2022/07/06 09:28:54;;;;;;;4.32;1.10;;;16.90;99.90;;;;;;5012719;28;20541;-77
2022/07/06 09:31:20;;;;;;;5.80;1.35;;;17.20;99.90;;;;;;5008051;28;20046;-76
2022/07/06 09:33:57;;;;;;;5.03;1.35;;;17.50;99.90;;;;;;5021381;28;20048;-77
2022/07/06 09:36:43;;;;;;;2.88;1.00;;;17.70;99.90;;;;;;5011946;28;20045;-77
2022/07/06 09:39:28;;;;;;;3.70;1.10;;;17.80;99.90;;;;;;5014680;28;20091;-77
2022/07/06 09:41:59;;;;;;;2.42;1.00;;;18.20;99.90;;;;;;5030739;28;20050;-77
2022/07/06 09:44:36;;;;;;;3.28;1.10;;;18.50;99.90;;;;;;5045325;28;20049;-77
2022/07/06 09:47:11;;;;;;;3.33;1.35;;;18.50;99.90;;;;;;5010692;28;20630;-77
2022/07/06 09:49:38;;;;;;;3.97;1.30;;;18.60;99.90;;;;;;5016950;28;20044;-77
2022/07/06 09:52:09;;;;;;;1.95;0.95;;;18.60;99.90;;;;;;4985413;28;20640;-77
2022/07/06 09:54:38;;;;;;;3.38;1.27;;;18.70;99.90;;;;;;5047868;28;20041;-77
2022/07/06 09:57:05;;;;;;;2.95;1.00;;;18.80;99.90;;;;;;5018558;28;20034;-77
2022/07/06 09:59:33;;;;;;;5.95;1.10;;;18.70;99.90;;;;;;5031444;28;20120;-77
2022/07/06 10:02:01;;;;;;;4.38;1.40;;;18.70;99.90;;;;;;5031636;28;20130;-76
2022/07/06 10:04:28;;;;;;;2.83;0.88;;;18.50;99.90;;;;;;5025025;28;20034;-77
2022/07/06 10:06:56;;;;;;;4.13;0.85;;;18.50;99.90;;;;;;4998278;28;20049;-77
2022/07/06 10:09:24;;;;;;;4.43;0.80;;;18.60;99.90;;;;;;5021177;28;20059;-77
2022/07/06 10:12:01;;;;;;;2.80;0.93;;;18.70;99.90;;;;;;4995613;28;20048;-78
2022/07/06 10:14:29;;;;;;;2.55;0.68;;;19.00;99.90;;;;;;5016979;28;20483;-77
2022/07/06 10:17:01;;;;;;;1.63;0.75;;;19.20;99.90;;;;;;5012928;28;20047;-77
2022/07/06 10:19:28;;;;;;;1.40;0.60;;;19.20;99.90;;;;;;5028090;28;20037;-78
2022/07/06 10:21:56;;;;;;;3.58;0.90;;;19.10;99.90;;;;;;5011269;28;20480;-77
2022/07/06 10:24:21;;;;;;;1.67;0.60;;;19.00;99.70;;;;;;5017857;28;20048;-77
2022/07/06 10:26:48;;;;;;;3.50;0.88;;;19.10;99.60;;;;;;5014174;28;20041;-78
2022/07/06 10:29:14;;;;;;;2.75;0.70;;;19.20;99.60;;;;;;5025700;28;20413;-77
2022/07/06 10:31:43;;;;;;;5.28;0.93;;;19.20;99.40;;;;;;4992431;28;20040;-77
2022/07/06 10:34:13;;;;;;;1.60;0.73;;;19.20;98.80;;;;;;5012703;28;20129;-77
2022/07/06 10:36:40;;;;;;;2.40;0.80;;;19.20;99.10;;;;;;5032649;28;20038;-77
2022/07/06 10:41:53;;;;;;;4.13;0.93;;;19.10;99.00;;;;;;5007838;28;20084;-78
2022/07/06 10:44:24;;;;;;;2.22;0.63;;;19.00;98.90;;;;;;5031070;28;20077;-77
2022/07/06 10:46:52;;;;;;;1.88;0.57;;;18.90;98.00;;;;;;5045076;28;20034;-78
2022/07/06 10:49:19;;;;;;;2.08;0.70;;;18.80;98.50;;;;;;5033051;28;20037;-78
2022/07/06 10:51:44;;;;;;;3.10;1.08;;;18.80;98.80;;;;;;5033130;28;20085;-78
2022/07/06 10:54:10;;;;;;;1.67;0.60;;;18.70;98.70;;;;;;5016508;28;20077;-78
2022/07/06 10:56:38;;;;;;;1.00;0.60;;;18.80;98.70;;;;;;5029660;28;20037;-78
2022/07/06 10:59:15;;;;;;;1.95;0.90;;;18.80;98.40;;;;;;5024433;28;20046;-78
2022/07/06 11:02:01;;;;;;;2.35;0.80;;;19.00;98.50;;;;;;5011727;28;20041;-78
2022/07/06 11:04:32;;;;;;;2.00;0.60;;;19.10;98.60;;;;;;5026304;28;20124;-78
2022/07/06 11:07:10;;;;;;;4.72;0.80;;;19.50;98.80;;;;;;5016746;28;20038;-78
2022/07/06 11:09:37;;;;;;;2.40;0.45;;;19.80;99.00;;;;;;5030507;28;20052;-78
2022/07/06 11:12:23;;;;;;;3.67;0.90;;;20.20;98.30;;;;;;5032832;28;20404;-78
2022/07/06 11:14:51;;;;;;;1.77;0.68;;;20.50;98.20;;;;;;4994299;28;20133;-78
2022/07/06 11:17:17;;;;;;;3.60;0.90;;;20.70;97.30;;;;;;5024888;28;20128;-78
2022/07/06 11:19:58;;;;;;;2.65;0.60;;;20.60;96.60;;;;;;5033156;28;20440;-78
2022/07/06 11:22:26;;;;;;;2.50;0.93;;;20.50;95.70;;;;;;5021762;28;20049;-78
2022/07/06 11:24:52;;;;;;;4.80;1.27;;;20.40;96.70;;;;;;5029949;28;20055;-78
2022/07/06 11:27:19;;;;;;;3.33;0.70;;;20.20;96.70;;;;;;5047336;28;20041;-78
2022/07/06 11:29:45;;;;;;;3.67;0.82;;;20.30;97.00;;;;;;5012256;28;20099;-78
2022/07/06 11:32:14;;;;;;;3.40;0.75;;;20.20;96.50;;;;;;5012764;28;20042;-78
2022/07/06 11:34:44;;;;;;;8.07;1.02;;;20.20;96.20;;;;;;5015477;28;20053;-79
2022/07/06 11:37:12;;;;;;;2.30;0.85;;;20.00;96.30;;;;;;5000527;28;20037;-79
2022/07/06 11:39:40;;;;;;;1.60;0.80;;;19.90;96.70;;;;;;5031888;28;20048;-79
2022/07/06 11:42:07;;;;;;;2.22;0.60;;;19.70;96.60;;;;;;5009809;28;20061;-79
2022/07/06 11:44:34;;;;;;;4.28;0.50;;;19.90;96.60;;;;;;5003705;28;20079;-78
2022/07/06 11:47:03;;;;;;;3.55;1.00;;;19.90;96.30;;;;;;5009045;28;20477;-79
2022/07/06 11:49:36;;;;;;;1.13;0.70;;;19.80;95.80;;;;;;5008952;28;20210;-78
2022/07/06 11:52:11;;;;;;;2.75;0.90;;;19.90;95.60;;;;;;5030874;28;20050;-78
2022/07/06 11:54:37;;;;;;;2.15;1.25;;;20.10;96.00;;;;;;5046392;28;20038;-78
2022/07/06 11:57:03;;;;;;;2.65;0.98;;;20.20;96.00;;;;;;4980895;28;20034;-78
2022/07/06 11:59:34;;;;;;;1.45;1.00;;;20.20;95.70;;;;;;5014127;28;20029;-79
2022/07/06 12:02:04;;;;;;;3.60;0.80;;;20.20;96.20;;;;;;5001514;28;20103;-79
2022/07/06 12:04:31;;;;;;;2.63;0.98;;;20.20;96.10;;;;;;5013044;28;20037;-79
2022/07/06 12:07:02;;;;;;;2.78;0.90;;;20.20;96.40;;;;;;4995027;28;20072;-79
2022/07/06 12:09:32;;;;;;;4.43;1.20;;;20.30;95.70;;;;;;5023206;28;20041;-78
2022/07/06 12:12:02;;;;;;;11.48;1.98;;;20.40;95.50;;;;;;5020503;28;20041;-78
2022/07/06 12:14:28;;;;;;;6.28;1.75;;;20.30;95.80;;;;;;5027353;28;20037;-78
2022/07/06 12:16:54;;;;;;;4.13;0.90;;;20.20;95.60;;;;;;5021502;28;20474;-76
2022/07/06 12:19:22;;;;;;;2.70;0.98;;;20.20;95.90;;;;;;5044265;28;20239;-78
2022/07/06 12:21:52;;;;;;;2.72;0.95;;;20.10;95.30;;;;;;5027976;28;20088;-78
2022/07/06 12:24:27;;;;;;;3.38;0.70;;;20.10;95.40;;;;;;5019420;28;20099;-79
2022/07/06 12:26:54;;;;;;;3.42;0.95;;;20.00;95.70;;;;;;5017498;28;20129;-78
2022/07/06 12:29:22;;;;;;;2.97;1.33;;;19.90;96.20;;;;;;5034302;28;20083;-78
2022/07/06 12:31:52;;;;;;;3.33;1.02;;;20.00;96.10;;;;;;5028316;28;20034;-78
2022/07/06 12:34:26;;;;;;;1.35;0.80;;;19.80;96.10;;;;;;5029301;28;20048;-78
2022/07/06 12:36:56;;;;;;;1.80;0.75;;;19.80;96.40;;;;;;5032191;28;20683;-77
2022/07/06 12:39:27;;;;;;;3.88;1.10;;;20.10;96.80;;;;;;5033293;28;20044;-78
2022/07/06 12:41:59;;;;;;;3.60;0.80;;;20.30;96.20;;;;;;5028887;28;20064;-78
2022/07/06 12:44:25;;;;;;;3.22;0.90;;;20.30;96.20;;;;;;5032421;28;20048;-78
2022/07/06 12:47:04;;;;;;;5.15;1.00;;;20.20;96.20;;;;;;5012688;28;20037;-77
2022/07/06 12:49:31;;;;;;;3.60;0.98;;;20.10;96.10;;;;;;5016207;28;20402;-78
2022/07/06 12:52:05;;;;;;;1.67;0.80;;;20.10;96.30;;;;;;5030288;28;20033;-78